Time;durP1;ratioP1;P1;durP2;ratioP2;P2;SDS_P1;SDS_P2;PMS_P1;PMS_P2;Temp;Humidity;BMP_temperature;BMP_pressure;BME280_temperature;BME280_humidity;BME280_pressure;Samples;Min_cycle;Max_cycle;Signal;HPM_P1;HPM_P2
2020/12/27 00:00:31;;;;;;;28.17;11.12;;;;;;;2.47;78.13;99613.92;1799732;79;21269;-91
2020/12/27 00:03:00;;;;;;;27.52;11.35;;;;;;;2.42;78.12;99614.25;1799795;79;21081;-89
2020/12/27 00:05:27;;;;;;;30.77;11.53;;;;;;;2.38;77.98;99607.78;1805602;79;21257;-90
2020/12/27 00:07:54;;;;;;;28.05;9.00;;;;;;;2.34;77.67;99606.00;1795413;79;21234;-91
2020/12/27 00:10:22;;;;;;;22.20;8.80;;;;;;;2.33;77.98;99604.72;1794078;79;21245;-87
2020/12/27 00:12:49;;;;;;;23.83;8.60;;;;;;;2.32;78.13;99611.95;1774261;79;21214;-83
2020/12/27 00:15:18;;;;;;;18.62;7.22;;;;;;;2.31;77.99;99618.80;1806835;79;21250;-84
2020/12/27 00:17:45;;;;;;;25.85;9.13;;;;;;;2.30;77.81;99623.47;1792430;79;21270;-82
2020/12/27 00:20:13;;;;;;;23.95;9.28;;;;;;;2.34;78.73;99622.68;1805956;79;21266;-84
2020/12/27 00:22:40;;;;;;;23.52;8.95;;;;;;;2.36;79.14;99612.45;1802377;79;21127;-83
2020/12/27 00:58:43;;;;;;;20.52;7.87;;;;;;;2.38;77.55;99617.19;1767664;79;23055;-89
2020/12/27 01:01:14;;;;;;;20.60;7.95;;;;;;;2.35;78.01;99621.86;1724915;79;21161;-89
2020/12/27 01:03:51;;;;;;;14.65;6.42;;;;;;;2.34;77.67;99623.11;1804925;79;23030;-83
2020/12/27 01:06:25;;;;;;;26.93;8.93;;;;;;;2.33;77.87;99621.40;1715839;77;21857;-89
2020/12/27 01:09:10;;;;;;;23.20;7.90;;;;;;;2.34;78.03;99620.55;1665986;81;21201;-80
2020/12/27 01:11:39;;;;;;;18.52;6.78;;;;;;;2.41;78.65;99631.37;1609127;86;21831;-82
2020/12/27 01:14:06;;;;;;;18.50;6.12;;;;;;;2.43;78.45;99628.80;1618540;88;21204;-86
2020/12/27 01:16:34;;;;;;;20.88;6.62;;;;;;;2.39;77.33;99631.33;1649004;82;21939;-86
2020/12/27 01:19:03;;;;;;;18.37;7.37;;;;;;;2.25;77.41;99601.14;1656393;83;21384;-88
2020/12/27 01:21:32;;;;;;;19.40;7.65;;;;;;;2.28;77.86;99598.64;1690343;85;21166;-88
2020/12/27 01:24:01;;;;;;;21.82;8.30;;;;;;;2.46;78.23;99619.87;1704439;83;21150;-89
2020/12/27 01:26:32;;;;;;;17.12;7.17;;;;;;;2.46;78.03;99613.47;1680998;85;21198;-91
2020/12/27 01:29:02;;;;;;;19.20;7.95;;;;;;;2.42;77.99;99607.41;1672260;84;21161;-89
2020/12/27 01:31:30;;;;;;;21.65;8.13;;;;;;;2.37;77.86;99605.21;1673804;84;21183;-90
2020/12/27 01:34:00;;;;;;;25.50;10.85;;;;;;;2.37;78.05;99606.50;1672372;84;21606;-89
2020/12/27 01:36:32;;;;;;;31.10;10.85;;;;;;;2.36;78.02;99602.19;1706594;84;21192;-89
2020/12/27 01:39:05;;;;;;;19.12;7.53;;;;;;;2.31;77.96;99602.13;1671650;84;21297;-90
2020/12/27 01:41:32;;;;;;;20.17;7.40;;;;;;;2.28;78.03;99602.48;1703785;84;21329;-88
2020/12/27 01:44:11;;;;;;;23.87;8.95;;;;;;;2.26;78.38;99592.62;1641835;85;21752;-86
2020/12/27 01:58:18;;;;;;;22.20;8.65;;;;;;;2.26;79.15;99592.62;1805491;78;23262;-89
2020/12/27 02:01:02;;;;;;;24.27;9.28;;;;;;;2.21;78.88;99592.95;1753787;79;21292;-89
2020/12/27 02:03:50;;;;;;;14.10;6.60;;;;;;;2.20;78.74;99597.22;1695329;81;21219;-88
2020/12/27 02:06:32;;;;;;;16.30;6.10;;;;;;;2.27;78.45;99590.08;1825253;76;22909;-89
2020/12/27 02:09:03;;;;;;;15.75;6.75;;;;;;;2.21;78.30;99593.84;1748389;77;21128;-90
2020/12/27 02:11:34;;;;;;;15.13;6.03;;;;;;;2.18;77.95;99590.78;1731189;79;21705;-86
2020/12/27 02:14:02;;;;;;;19.25;6.62;;;;;;;2.18;78.03;99595.05;1738403;80;21176;-89
2020/12/27 02:16:33;;;;;;;18.98;7.78;;;;;;;2.16;77.28;99604.00;1719880;81;21574;-88
2020/12/27 02:19:21;;;;;;;18.52;6.75;;;;;;;2.14;77.77;99601.83;1742884;77;21307;-90
2020/12/27 02:21:51;;;;;;;17.05;6.12;;;;;;;2.14;77.83;99596.70;1741422;79;21280;-87
2020/12/27 02:35:18;;;;;;;18.32;6.85;;;;;;;2.13;77.77;99571.90;1803771;75;954687;-90
2020/12/27 02:37:48;;;;;;;16.73;6.58;;;;;;;2.11;78.17;99567.16;1724296;79;21323;-87
2020/12/27 02:40:16;;;;;;;17.65;7.15;;;;;;;2.13;77.78;99559.47;1761289;81;21286;-89
2020/12/27 02:43:02;;;;;;;16.82;6.65;;;;;;;2.09;78.15;99553.84;1721517;79;21654;-90
2020/12/27 02:45:32;;;;;;;19.82;8.10;;;;;;;2.13;78.05;99561.64;1695996;81;21545;-91
2020/12/27 02:48:08;;;;;;;18.98;8.45;;;;;;;2.17;77.74;99571.53;1859032;76;27970;-89
2020/12/27 02:50:46;;;;;;;18.60;7.90;;;;;;;2.21;77.89;99572.42;1662782;86;21246;-87
2020/12/27 02:53:14;;;;;;;20.43;6.78;;;;;;;2.18;78.13;99570.25;1753311;79;21273;-90
2020/12/27 02:55:44;;;;;;;17.17;6.10;;;;;;;2.20;77.96;99570.29;1800861;77;21320;-90
2020/12/27 02:58:12;;;;;;;17.60;7.65;;;;;;;2.11;78.12;99552.17;1758742;78;21278;-85
2020/12/27 03:00:41;;;;;;;15.55;6.08;;;;;;;2.17;78.11;99557.42;1716414;78;21732;-88
2020/12/27 03:03:27;;;;;;;18.15;6.92;;;;;;;2.17;78.29;99565.13;1663098;85;21305;-83
2020/12/27 03:05:59;;;;;;;25.15;8.88;;;;;;;2.18;78.50;99555.29;1696731;79;21330;-83
2020/12/27 03:08:26;;;;;;;20.77;7.62;;;;;;;2.18;78.61;99548.88;1766111;79;21132;-85
2020/12/27 03:10:56;;;;;;;23.05;8.60;;;;;;;2.23;78.90;99550.22;1768421;75;21179;-86
2020/12/27 03:13:27;;;;;;;29.20;10.32;;;;;;;2.22;79.12;99553.64;1792421;75;21280;-90
2020/12/27 03:15:56;;;;;;;20.08;8.65;;;;;;;2.23;79.15;99552.78;1831661;76;21124;-86
2020/12/27 03:18:43;;;;;;;27.52;12.28;;;;;;;2.25;79.61;99548.14;1792761;79;28332;-84
2020/12/27 03:21:13;;;;;;;26.07;10.00;;;;;;;2.28;79.70;99555.88;1686613;79;21333;-88
2020/12/27 03:23:41;;;;;;;22.10;9.70;;;;;;;2.29;79.65;99558.90;1667544;81;21294;-90
2020/12/27 03:26:11;;;;;;;23.38;8.55;;;;;;;2.34;79.24;99547.41;1667783;84;21617;-87
2020/12/27 03:28:39;;;;;;;25.40;10.08;;;;;;;2.32;79.23;99545.25;1678008;83;21645;-91
2020/12/27 03:31:08;;;;;;;23.85;10.35;;;;;;;2.29;79.47;99546.07;1721622;80;21143;-89
2020/12/27 03:33:37;;;;;;;24.18;9.03;;;;;;;2.28;79.16;99548.61;1710914;80;21198;-86
2020/12/27 03:36:12;;;;;;;22.58;9.15;;;;;;;2.28;79.34;99551.17;1701565;80;21357;-88
2020/12/27 03:38:52;;;;;;;27.45;9.05;;;;;;;2.36;79.33;99554.72;1803317;78;22929;-90
2020/12/27 03:41:31;;;;;;;24.45;9.25;;;;;;;2.35;79.41;99553.86;1806074;78;23071;-87
2020/12/27 03:54:31;;;;;;;24.27;9.75;;;;;;;2.38;80.77;99538.92;1859261;77;23046;-88
2020/12/27 03:57:14;;;;;;;27.05;10.48;;;;;;;2.32;79.94;99542.68;1809505;77;22953;-90
2020/12/27 04:25:45;;;;;;;22.67;9.25;;;;;;;2.18;78.79;99536.05;1774713;80;28845;-85
2020/12/27 04:28:14;;;;;;;18.00;7.72;;;;;;;2.22;78.52;99545.95;1735558;79;21157;-82
2020/12/27 04:30:44;;;;;;;20.57;7.40;;;;;;;2.17;77.60;99533.91;1740990;82;21097;-83
2020/12/27 04:33:21;;;;;;;24.10;7.97;;;;;;;2.31;78.75;99528.14;1813987;79;23088;-90
2020/12/27 04:35:50;;;;;;;23.27;8.98;;;;;;;2.26;78.16;99522.06;1725504;79;21157;-91
2020/12/27 04:38:18;;;;;;;19.95;8.35;;;;;;;2.29;78.53;99518.24;1731612;82;21169;-89
2020/12/27 04:40:46;;;;;;;27.67;9.68;;;;;;;2.25;78.19;99513.91;1749963;79;21594;-88
2020/12/27 04:46:03;;;;;;;24.57;9.13;;;;;;;2.24;77.86;99511.77;1807744;77;22897;-88
2020/12/27 04:48:33;;;;;;;21.57;8.95;;;;;;;2.18;78.00;99506.55;1771696;78;21645;-90
2020/12/27 04:51:15;;;;;;;19.17;8.00;;;;;;;2.22;78.14;99517.73;1813377;77;22902;-91
2020/12/27 04:53:45;;;;;;;23.50;8.20;;;;;;;2.16;78.17;99521.05;1727703;78;21149;-87
2020/12/27 04:56:21;;;;;;;19.12;7.05;;;;;;;2.14;78.09;99515.04;1726308;79;22364;-88
2020/12/27 04:59:04;;;;;;;21.97;7.15;;;;;;;2.16;77.73;99507.80;1800332;78;23041;-88
2020/12/27 05:01:32;;;;;;;20.77;7.37;;;;;;;2.12;78.03;99518.00;1760853;76;21306;-84
2020/12/27 05:04:08;;;;;;;19.95;6.62;;;;;;;2.14;78.05;99514.61;1735883;79;21147;-84
2020/12/27 05:06:45;;;;;;;18.02;6.95;;;;;;;2.15;77.83;99503.53;1657735;80;21166;-86
2020/12/27 05:09:14;;;;;;;17.12;7.55;;;;;;;2.17;77.88;99504.41;1660387;82;21347;-84
2020/12/27 05:11:43;;;;;;;19.73;8.10;;;;;;;2.17;77.03;99498.00;1719919;83;21156;-90
2020/12/27 05:14:16;;;;;;;20.40;8.43;;;;;;;2.18;77.61;99492.44;1707952;82;21716;-90
2020/12/27 05:16:54;;;;;;;18.55;7.87;;;;;;;2.14;77.36;99489.39;1678126;83;21172;-86
2020/12/27 05:22:10;;;;;;;20.48;7.20;;;;;;;2.17;76.61;99489.02;1814072;77;22571;-88
2020/12/27 05:24:52;;;;;;;15.48;6.37;;;;;;;2.02;75.85;99489.20;1699446;82;21212;-86
2020/12/27 05:38:11;;;;;;;14.28;6.62;;;;;;;1.97;76.57;99470.77;1824389;77;22844;-84
2020/12/27 05:40:45;;;;;;;15.98;5.78;;;;;;;1.96;76.84;99457.91;1680157;82;21211;-85
2020/12/27 05:43:17;;;;;;;21.82;6.08;;;;;;;1.91;76.58;99455.69;1720275;80;21625;-87
2020/12/27 05:56:39;;;;;;;17.15;6.67;;;;;;;2.02;76.52;99469.55;1813611;77;22872;-90
2020/12/27 06:21:12;;;;;;;17.55;7.15;;;;;;;1.90;76.44;99450.13;1821121;75;23031;-82
2020/12/27 06:24:03;;;;;;;17.95;5.97;;;;;;;1.88;76.86;99449.24;1666233;82;21171;-87
2020/12/27 06:26:32;;;;;;;14.38;6.35;;;;;;;1.87;77.32;99448.39;1664679;81;21194;-83
2020/12/27 06:29:10;;;;;;;20.32;7.40;;;;;;;1.94;77.18;99436.52;1666799;81;21576;-83
2020/12/27 06:31:42;;;;;;;17.20;8.55;;;;;;;1.99;77.36;99428.06;1757080;80;21141;-90
2020/12/27 06:34:38;;;;;;;26.87;8.00;;;;;;;1.94;77.05;99437.80;1669769;84;21192;-87
2020/12/27 06:37:10;;;;;;;16.42;6.95;;;;;;;2.01;76.84;99432.33;1691378;79;21189;-89
2020/12/27 06:39:52;;;;;;;16.48;7.60;;;;;;;2.07;76.87;99429.85;1788848;79;22934;-89
2020/12/27 07:00:22;;;;;;;20.90;7.90;;;;;;;2.12;76.55;99398.30;1780024;79;22709;-87
2020/12/27 07:03:22;;;;;;;14.80;6.53;;;;;;;2.03;76.60;99409.73;1639347;86;21155;-88
2020/12/27 07:06:23;;;;;;;17.10;7.53;;;;;;;2.08;76.59;99396.54;1612860;87;21304;-81
2020/12/27 07:08:57;;;;;;;19.67;7.47;;;;;;;2.13;76.39;99388.50;1654797;82;21348;-85
2020/12/27 07:11:30;;;;;;;15.50;6.95;;;;;;;2.14;76.87;99386.79;1693233;84;21296;-84
2020/12/27 07:13:59;;;;;;;20.32;7.90;;;;;;;2.16;76.96;99395.37;1664832;82;21282;-84
2020/12/27 07:22:37;;;;;;;23.55;9.33;;;;;;;2.23;76.54;99389.48;1665379;86;21978;-90
2020/12/27 07:26:05;;;;;;;28.95;11.50;;;;;;;2.23;76.89;99383.08;1749228;81;21299;-90
2020/12/27 07:28:53;;;;;;;26.20;10.80;;;;;;;2.23;76.98;99375.78;1686851;84;21600;-90
2020/12/27 07:32:23;;;;;;;27.02;10.78;;;;;;;2.25;77.06;99387.80;1667806;81;21308;-87
2020/12/27 07:35:26;;;;;;;20.52;7.92;;;;;;;2.24;77.39;99385.21;1747244;81;21272;-87
2020/12/27 07:40:45;;;;;;;25.95;8.85;;;;;;;2.29;77.23;99403.67;1717841;82;21166;-85
2020/12/27 07:43:27;;;;;;;23.83;9.10;;;;;;;2.35;77.62;99404.19;1706774;81;21169;-82
2020/12/27 07:45:55;;;;;;;25.55;10.50;;;;;;;2.30;77.66;99396.41;1715183;83;21298;-86
2020/12/27 07:48:22;;;;;;;22.15;8.98;;;;;;;2.32;77.82;99399.00;1699626;84;21188;-91
2020/12/27 07:50:50;;;;;;;23.65;9.73;;;;;;;2.38;77.59;99396.08;1708177;82;21176;-92
2020/12/27 07:56:37;;;;;;;21.45;9.28;;;;;;;2.45;77.35;99391.02;1682033;84;21206;-89
2020/12/27 07:59:04;;;;;;;25.80;11.68;;;;;;;2.45;77.64;99386.77;1619228;87;21205;-89
2020/12/27 08:01:36;;;;;;;21.33;8.53;;;;;;;2.49;77.51;99383.83;1686310;84;21193;-91
2020/12/27 08:04:31;;;;;;;23.12;7.87;;;;;;;2.51;77.17;99377.86;1622934;84;21672;-91
2020/12/27 08:06:58;;;;;;;21.82;7.37;;;;;;;2.54;77.42;99371.46;1650931;87;21191;-91
2020/12/27 08:09:27;;;;;;;21.30;9.05;;;;;;;2.62;77.29;99363.85;1678572;84;21156;-91
2020/12/27 08:11:55;;;;;;;20.45;8.30;;;;;;;2.71;77.51;99356.70;1654073;85;21203;-90
2020/12/27 08:14:26;;;;;;;21.73;8.73;;;;;;;2.67;77.46;99358.36;1644714;86;21251;-90
2020/12/27 08:17:15;;;;;;;22.32;9.33;;;;;;;2.76;77.21;99366.14;1678414;83;21138;-89
2020/12/27 08:20:06;;;;;;;17.95;8.40;;;;;;;2.80;77.21;99359.34;1686292;84;21354;-90
2020/12/27 08:22:33;;;;;;;21.40;9.20;;;;;;;2.86;76.51;99364.53;1683029;83;21663;-93
2020/12/27 08:25:14;;;;;;;19.05;9.08;;;;;;;2.65;76.57;99316.84;1693171;83;21900;-93
2020/12/27 08:27:54;;;;;;;17.75;8.33;;;;;;;2.85;76.57;99341.00;1654838;85;21248;-89
2020/12/27 08:30:28;;;;;;;18.30;9.40;;;;;;;2.84;76.30;99339.27;1616967;79;21202;-91
2020/12/27 08:33:38;;;;;;;16.93;7.05;;;;;;;2.84;76.45;99345.69;1664023;85;21207;-92
2020/12/27 08:36:07;;;;;;;25.80;9.65;;;;;;;2.94;76.59;99360.33;1678194;84;21142;-93
2020/12/27 08:42:07;;;;;;;19.73;8.50;;;;;;;3.03;76.17;99341.60;1627904;87;21212;-92
2020/12/27 08:44:46;;;;;;;19.80;7.97;;;;;;;3.11;75.83;99339.11;1618073;87;21204;-91
2020/12/27 08:47:26;;;;;;;20.72;9.63;;;;;;;3.20;76.08;99331.45;1648932;86;21200;-90
2020/12/27 08:50:07;;;;;;;22.58;8.13;;;;;;;3.24;76.22;99329.34;1647281;86;21214;-90
2020/12/27 08:52:54;;;;;;;16.87;7.15;;;;;;;3.39;75.50;99328.19;1808305;77;22895;-91
2020/12/27 08:58:03;;;;;;;24.20;10.03;;;;;;;3.45;74.90;99329.95;1689140;83;21136;-91
2020/12/27 09:03:10;;;;;;;18.95;8.05;;;;;;;3.48;75.26;99335.12;1634074;86;21209;-93
2020/12/27 09:05:37;;;;;;;22.00;8.78;;;;;;;3.50;75.05;99338.97;1680872;84;21200;-91
2020/12/27 09:08:25;;;;;;;21.62;8.13;;;;;;;3.51;74.85;99335.13;1683402;84;21212;-92
2020/12/27 09:11:16;;;;;;;17.95;8.38;;;;;;;3.39;74.92;99312.77;1690160;84;21197;-91
2020/12/27 09:13:54;;;;;;;18.70;8.18;;;;;;;3.46;74.96;99311.12;1716089;82;21168;-91
2020/12/27 09:17:07;;;;;;;13.83;6.37;;;;;;;3.47;74.68;99302.98;1718675;83;21171;-91
2020/12/27 09:19:37;;;;;;;14.47;6.10;;;;;;;3.48;74.12;99295.69;1676547;84;21154;-89
2020/12/27 09:22:12;;;;;;;15.05;6.20;;;;;;;3.50;74.26;99291.02;1637273;84;21282;-90
2020/12/27 09:25:10;;;;;;;17.95;7.60;;;;;;;3.51;74.07;99293.16;1634783;86;21180;-91
2020/12/27 09:27:38;;;;;;;15.68;6.58;;;;;;;3.54;74.85;99290.59;1635168;86;21209;-92
2020/12/27 09:30:05;;;;;;;18.32;5.92;;;;;;;3.60;74.95;99290.63;1638065;87;21214;-91
2020/12/27 09:32:36;;;;;;;17.27;6.95;;;;;;;3.61;74.62;99282.07;1637779;86;21230;-93
2020/12/27 09:35:32;;;;;;;17.20;7.75;;;;;;;3.67;74.69;99278.25;1648846;85;21189;-90
2020/12/27 09:41:44;;;;;;;16.60;7.15;;;;;;;3.81;74.47;99264.18;1667188;84;21183;-90
2020/12/27 09:44:11;;;;;;;16.80;7.08;;;;;;;3.86;74.29;99259.05;1667648;85;21196;-91
2020/12/27 09:47:00;;;;;;;17.15;7.72;;;;;;;3.82;73.75;99250.89;1667922;85;22158;-91
2020/12/27 09:49:36;;;;;;;19.65;7.37;;;;;;;3.86;73.70;99268.05;1700615;83;21147;-90
2020/12/27 09:52:19;;;;;;;13.78;6.58;;;;;;;3.90;73.96;99260.38;1692166;85;21642;-92
2020/12/27 09:54:47;;;;;;;14.20;6.78;;;;;;;3.87;73.47;99244.06;1700789;83;21176;-92
2020/12/27 09:57:43;;;;;;;17.12;7.67;;;;;;;3.86;73.08;99239.75;1703374;83;21165;-91
2020/12/27 10:02:52;;;;;;;16.65;6.42;;;;;;;3.87;73.07;99222.20;1734414;82;21181;-91
2020/12/27 10:05:19;;;;;;;15.20;6.25;;;;;;;3.87;73.20;99206.33;1741522;81;21676;-91
2020/12/27 10:07:47;;;;;;;16.15;6.08;;;;;;;3.95;73.60;99204.64;1675299;83;21982;-89
2020/12/27 10:10:15;;;;;;;12.75;6.33;;;;;;;3.93;73.26;99203.78;1671410;85;21216;-90
2020/12/27 10:12:42;;;;;;;15.23;5.78;;;;;;;3.96;73.07;99199.95;1675447;85;21192;-90
2020/12/27 10:15:10;;;;;;;14.85;7.25;;;;;;;4.10;73.97;99197.41;1676841;85;21617;-89
2020/12/27 10:20:46;;;;;;;16.52;7.10;;;;;;;4.28;73.98;99193.17;1644110;85;21160;-91
2020/12/27 10:23:14;;;;;;;18.60;6.90;;;;;;;4.37;73.16;99177.73;1680316;84;21188;-90
2020/12/27 10:25:41;;;;;;;18.48;7.72;;;;;;;4.48;72.75;99171.32;1680913;84;21216;-89
2020/12/27 10:28:09;;;;;;;12.78;6.53;;;;;;;4.38;72.82;99153.28;1668736;84;21484;-89
2020/12/27 10:30:36;;;;;;;14.28;5.80;;;;;;;4.65;71.57;99178.59;1677752;84;21179;-90
2020/12/27 10:33:03;;;;;;;16.80;6.75;;;;;;;4.52;72.04;99151.15;1673017;84;21168;-92
2020/12/27 10:35:31;;;;;;;16.12;6.70;;;;;;;4.60;72.02;99145.56;1677490;84;21156;-90
2020/12/27 10:37:58;;;;;;;15.90;7.05;;;;;;;4.85;71.65;99176.02;1674178;84;22001;-91
2020/12/27 10:40:25;;;;;;;16.50;7.42;;;;;;;4.80;71.20;99163.59;1670741;84;21163;-90
2020/12/27 10:42:52;;;;;;;13.55;6.70;;;;;;;4.88;71.41;99172.59;1676869;84;21587;-91
2020/12/27 10:45:20;;;;;;;13.10;6.60;;;;;;;4.92;70.43;99158.41;1671382;84;21152;-91
2020/12/27 10:47:47;;;;;;;14.05;6.50;;;;;;;4.94;71.32;99157.98;1666813;84;21191;-92
2020/12/27 10:50:15;;;;;;;16.17;7.25;;;;;;;5.03;70.69;99160.11;1683853;84;21181;-91
2020/12/27 10:52:42;;;;;;;17.67;7.55;;;;;;;5.10;70.67;99147.22;1671025;84;21617;-89
2020/12/27 10:55:11;;;;;;;17.02;6.97;;;;;;;5.23;71.27;99141.59;1761087;79;21169;-93
2020/12/27 10:57:39;;;;;;;26.95;9.08;;;;;;;5.33;69.56;99138.15;1772743;79;21171;-91
2020/12/27 11:00:06;;;;;;;14.75;6.75;;;;;;;5.33;69.64;99128.24;1776653;79;21469;-90
2020/12/27 11:02:33;;;;;;;14.10;6.40;;;;;;;5.34;69.38;99118.38;1787046;79;21180;-90
2020/12/27 11:05:01;;;;;;;17.30;7.85;;;;;;;5.46;70.60;99104.58;1745861;81;21169;-93
2020/12/27 11:07:41;;;;;;;15.20;6.75;;;;;;;5.31;70.41;99085.73;1676542;84;21160;-90
2020/12/27 11:10:08;;;;;;;15.85;7.65;;;;;;;5.53;69.07;99112.28;1691401;84;21183;-92
2020/12/27 11:12:36;;;;;;;15.20;7.12;;;;;;;5.45;68.79;99097.28;1654221;87;21172;-91
2020/12/27 11:15:03;;;;;;;14.63;6.75;;;;;;;5.43;68.79;99097.72;1677904;84;21176;-92
2020/12/27 11:17:31;;;;;;;17.62;8.63;;;;;;;5.46;69.42;99095.55;1678036;84;21196;-90
2020/12/27 11:19:58;;;;;;;13.95;6.92;;;;;;;5.43;68.93;99087.81;1677811;84;21168;-90
2020/12/27 11:22:25;;;;;;;19.70;7.78;;;;;;;5.44;69.53;99086.97;1674012;84;21176;-90
2020/12/27 11:24:53;;;;;;;18.40;8.08;;;;;;;5.38;69.47;99079.67;1656099;85;21215;-92
2020/12/27 11:27:20;;;;;;;19.65;7.33;;;;;;;5.48;69.49;99080.93;1678209;84;21142;-92
2020/12/27 11:29:48;;;;;;;11.95;5.22;;;;;;;5.43;69.42;99084.83;1678264;84;21206;-88
2020/12/27 11:32:15;;;;;;;14.40;6.35;;;;;;;5.38;69.01;99085.27;1677492;84;21192;-92
2020/12/27 11:34:42;;;;;;;16.23;6.05;;;;;;;5.42;69.24;99085.68;1683563;84;21203;-93
2020/12/27 11:37:11;;;;;;;12.88;6.30;;;;;;;5.44;69.45;99071.06;1704271;81;21289;-90
2020/12/27 11:39:38;;;;;;;12.85;6.03;;;;;;;5.47;70.19;99076.63;1706983;84;21745;-91
2020/12/27 11:42:05;;;;;;;17.65;7.15;;;;;;;5.55;70.31;99074.86;1710687;84;21191;-91
2020/12/27 11:44:33;;;;;;;14.63;6.50;;;;;;;5.66;70.09;99075.67;1708931;84;21173;-91
2020/12/27 11:47:25;;;;;;;15.63;6.72;;;;;;;5.78;69.59;99070.44;1698317;84;21169;-91
2020/12/27 11:50:11;;;;;;;14.33;6.22;;;;;;;5.93;69.22;99067.36;1616264;87;21654;-91
2020/12/27 11:52:38;;;;;;;15.50;6.28;;;;;;;6.04;68.46;99075.89;1617292;87;21474;-91
2020/12/27 11:55:08;;;;;;;13.83;6.08;;;;;;;6.01;67.27;99064.73;1762932;80;21081;-92
2020/12/27 11:57:36;;;;;;;14.93;6.55;;;;;;;6.09;68.41;99047.48;1765481;80;21156;-91
2020/12/27 12:03:15;;;;;;;16.42;6.72;;;;;;;6.14;68.25;99034.09;1728181;81;21188;-92
2020/12/27 12:05:42;;;;;;;16.73;7.50;;;;;;;6.12;66.72;99023.77;1680037;83;21178;-93
2020/12/27 12:08:10;;;;;;;13.70;6.22;;;;;;;6.11;67.36;99028.53;1682550;83;21609;-92
2020/12/27 12:10:37;;;;;;;11.43;6.12;;;;;;;5.96;66.98;99028.64;1680036;85;21481;-90
2020/12/27 12:13:04;;;;;;;14.18;6.58;;;;;;;5.96;67.12;99021.75;1679846;83;21172;-92
2020/12/27 12:15:32;;;;;;;17.40;7.45;;;;;;;5.93;67.22;99019.62;1682129;83;21641;-92
2020/12/27 12:17:59;;;;;;;18.35;7.97;;;;;;;6.04;68.02;99014.39;1681947;83;21485;-91
2020/12/27 12:26:47;;;;;;;16.50;7.12;;;;;;;6.06;67.81;99024.27;1761963;80;21176;-91
2020/12/27 12:29:26;;;;;;;13.18;6.30;;;;;;;6.00;67.68;99009.69;1748664;79;21139;-90
2020/12/27 12:31:54;;;;;;;29.92;11.48;;;;;;;6.01;67.68;99008.83;1790595;79;21192;-92
2020/12/27 12:34:21;;;;;;;19.35;8.88;;;;;;;5.99;67.78;99007.98;1792871;78;21565;-91
2020/12/27 12:39:39;;;;;;;17.00;6.95;;;;;;;5.94;68.37;99005.83;1731205;81;21992;-88
2020/12/27 12:42:07;;;;;;;17.67;6.85;;;;;;;5.93;68.52;98997.24;1734023;81;21185;-91
2020/12/27 12:44:34;;;;;;;14.98;7.03;;;;;;;5.88;68.32;99004.15;1734159;81;21164;-92
2020/12/27 12:47:02;;;;;;;12.55;5.60;;;;;;;5.81;68.44;98987.44;1734381;81;21164;-91
2020/12/27 12:49:29;;;;;;;11.70;6.03;;;;;;;5.76;68.46;99002.52;1733346;81;21184;-90
2020/12/27 12:52:17;;;;;;;15.23;6.20;;;;;;;5.76;68.71;98998.64;1707426;79;21263;-88
2020/12/27 12:54:44;;;;;;;11.73;6.03;;;;;;;5.73;69.51;99003.84;1737038;82;21182;-90
2020/12/27 12:57:12;;;;;;;12.55;6.70;;;;;;;5.76;69.13;99005.09;1804028;79;21105;-91
2020/12/27 12:59:41;;;;;;;15.68;6.28;;;;;;;5.67;69.02;98984.55;1731297;79;21137;-92
2020/12/27 13:02:09;;;;;;;15.10;7.20;;;;;;;5.62;68.81;98981.56;1725383;82;21171;-92
2020/12/27 13:04:36;;;;;;;10.35;5.80;;;;;;;5.52;69.57;98989.80;1725377;82;21976;-90
2020/12/27 13:07:03;;;;;;;14.75;6.60;;;;;;;5.52;69.72;98993.66;1733599;82;21131;-92
2020/12/27 13:09:31;;;;;;;12.00;6.10;;;;;;;5.49;69.65;98988.10;1713563;82;21142;-91
2020/12/27 13:11:58;;;;;;;15.72;7.53;;;;;;;5.42;69.72;98972.23;1730192;82;22078;-91
2020/12/27 13:14:26;;;;;;;16.45;7.97;;;;;;;5.38;70.41;98960.23;1734888;82;21202;-90
2020/12/27 13:16:53;;;;;;;17.05;7.10;;;;;;;5.34;70.40;98958.09;1729357;82;21190;-90
2020/12/27 13:19:20;;;;;;;19.25;8.08;;;;;;;5.30;70.49;98958.98;1729262;82;22007;-91
2020/12/27 13:21:48;;;;;;;15.30;6.95;;;;;;;5.22;70.67;98955.60;1735092;82;21150;-91
2020/12/27 13:24:16;;;;;;;13.08;6.22;;;;;;;5.19;70.97;98958.18;1762773;79;21120;-91
2020/12/27 13:26:44;;;;;;;13.48;5.72;;;;;;;5.17;71.00;98962.08;1777206;80;21987;-88
2020/12/27 13:29:11;;;;;;;13.83;6.20;;;;;;;5.15;71.31;98975.81;1755054;80;21809;-90
2020/12/27 13:31:42;;;;;;;14.33;5.95;;;;;;;5.16;71.51;98967.23;1758066;80;21151;-87
2020/12/27 13:34:14;;;;;;;15.47;6.27;;;;;;;5.13;71.82;98965.54;1696501;80;21193;-91
2020/12/27 13:36:42;;;;;;;15.65;6.60;;;;;;;5.16;71.91;98946.62;1737566;81;21175;-89
2020/12/27 13:39:09;;;;;;;17.90;7.85;;;;;;;5.15;72.15;98951.33;1733204;81;21169;-90
2020/12/27 13:41:36;;;;;;;17.65;7.22;;;;;;;5.17;71.97;98960.79;1738253;81;21164;-91
2020/12/27 13:44:05;;;;;;;16.00;7.15;;;;;;;5.18;72.09;98962.92;1736922;81;21176;-92
2020/12/27 13:46:38;;;;;;;20.97;7.20;;;;;;;5.16;71.88;98959.06;1718518;80;21527;-91
2020/12/27 13:49:09;;;;;;;18.95;7.28;;;;;;;5.09;71.96;98955.23;1740899;81;21132;-88
2020/12/27 13:51:36;;;;;;;16.23;7.28;;;;;;;5.12;71.69;98952.66;1737480;81;21660;-90
2020/12/27 13:54:04;;;;;;;14.53;6.85;;;;;;;5.07;72.05;98943.64;1698929;84;21647;-91
2020/12/27 13:56:31;;;;;;;15.58;7.55;;;;;;;5.05;71.98;98950.52;1701798;84;21195;-89
2020/12/27 13:58:59;;;;;;;21.30;7.40;;;;;;;5.05;72.26;98952.25;1702136;84;21168;-90
2020/12/27 14:01:26;;;;;;;16.45;6.33;;;;;;;5.01;72.38;98941.09;1700518;84;21168;-90
2020/12/27 14:03:54;;;;;;;16.07;6.40;;;;;;;5.01;72.01;98937.23;1703109;84;21203;-90
2020/12/27 14:06:28;;;;;;;13.58;6.55;;;;;;;4.98;72.47;98923.09;1700595;84;21318;-91
2020/12/27 14:08:56;;;;;;;13.60;5.92;;;;;;;4.93;72.72;98917.98;1666955;81;22001;-89
2020/12/27 14:14:01;;;;;;;19.52;9.33;;;;;;;5.04;73.12;98895.16;1865694;75;28480;-91
2020/12/27 14:16:29;;;;;;;14.07;6.67;;;;;;;5.06;73.11;98887.83;1748075;76;21250;-91
2020/12/27 14:18:56;;;;;;;17.17;7.28;;;;;;;5.03;72.89;98888.27;1735345;80;21179;-91
2020/12/27 14:21:24;;;;;;;18.52;7.75;;;;;;;4.99;73.12;98892.58;1737496;82;21160;-91
2020/12/27 14:24:03;;;;;;;15.18;7.12;;;;;;;4.98;72.94;98881.44;1748876;81;21198;-89
2020/12/27 14:26:40;;;;;;;16.30;7.83;;;;;;;5.01;72.53;98885.70;1754491;81;21549;-88
2020/12/27 14:29:21;;;;;;;13.75;6.17;;;;;;;4.96;72.65;98883.16;1700342;79;21192;-89
2020/12/27 14:31:49;;;;;;;16.15;7.22;;;;;;;4.91;72.96;98891.33;1716724;83;21153;-90
2020/12/27 14:34:16;;;;;;;15.60;6.40;;;;;;;4.89;73.39;98889.64;1714549;83;21204;-91
2020/12/27 14:36:43;;;;;;;16.95;6.72;;;;;;;4.87;73.74;98882.36;1717509;83;21200;-90
2020/12/27 14:39:11;;;;;;;20.27;7.70;;;;;;;4.89;73.80;98876.77;1693571;83;21189;-91
2020/12/27 14:41:40;;;;;;;12.65;6.17;;;;;;;4.90;74.04;98872.90;1703826;82;21141;-86
2020/12/27 14:44:28;;;;;;;18.42;7.12;;;;;;;4.85;73.90;98873.34;1709008;80;21176;-90
2020/12/27 14:50:23;;;;;;;19.45;7.60;;;;;;;4.76;74.22;98864.40;1728428;81;21620;-91
2020/12/27 14:52:50;;;;;;;17.37;7.78;;;;;;;4.76;73.66;98859.25;1726382;81;21888;-92
2020/12/27 14:55:18;;;;;;;15.68;6.87;;;;;;;4.75;73.08;98855.79;1793321;79;21164;-92
2020/12/27 14:58:12;;;;;;;16.15;7.67;;;;;;;4.69;73.80;98849.83;1747970;78;21128;-90
2020/12/27 15:00:39;;;;;;;18.55;6.47;;;;;;;4.66;74.20;98847.29;1699691;82;21204;-89
2020/12/27 15:03:07;;;;;;;14.30;6.90;;;;;;;4.65;73.86;98853.28;1668311;84;21214;-89
2020/12/27 15:05:34;;;;;;;15.72;5.95;;;;;;;4.60;74.36;98847.32;1665601;84;21723;-91
2020/12/27 15:08:01;;;;;;;12.53;6.25;;;;;;;4.55;74.91;98839.16;1665019;84;21200;-90
2020/12/27 15:10:29;;;;;;;13.88;6.03;;;;;;;4.53;74.82;98844.75;1670461;84;21188;-91
2020/12/27 15:12:56;;;;;;;18.10;6.45;;;;;;;4.51;75.24;98845.19;1663398;84;21212;-91
2020/12/27 15:15:24;;;;;;;16.20;6.87;;;;;;;4.55;75.06;98831.44;1668009;84;21206;-89
2020/12/27 15:18:10;;;;;;;15.23;6.08;;;;;;;4.50;75.65;98830.62;1590803;88;21516;-88
2020/12/27 15:20:37;;;;;;;15.93;6.30;;;;;;;4.53;75.52;98837.47;1567730;90;21744;-89
2020/12/27 15:23:05;;;;;;;22.35;8.40;;;;;;;4.55;75.95;98835.30;1586537;89;21263;-91
2020/12/27 15:25:33;;;;;;;17.37;8.23;;;;;;;4.54;76.02;98819.44;1586227;89;22133;-91